NWS Home NWS Lubbock West Texas Mesonet                      Daily Summary For 01/13/2021

Latest   N   C   S   Daily Sum   3hrΔ   24hrΔ   Soil Data 
Site Map   24hr Precip   72hr Precip   Google Plot


Station Time of Last Max Temp Min Temp Max/Min Dew Pt. Max/Min RH 10m Avg Wind 2m Avg Wind Peak Gust @ 33ft (mph) Potential Evapotranspiration
mm/day or in/day
Rain Sum Solar Rad
MJ/m^2
% Clear Day Red Flag
Abernathy 5ENE 11:59 PM 40 26 22 /16 91 / 15 12.1  (SW) 8.9 29.6 mph 258° @ 1137 AM 2.3 or 0.09 0.00 13.7 101 0
Adrian 6WSW 11:59 PM 40 27 22 /16 91 / 15 13.7  (W) 9.8 24.2 mph 256° @ 0741 AM 2.8 or 0.11 0.00 13.4 103.3 0
Aiken 3WSW 11:59 PM 40 19 22 /16 91 / 15 10.9  (SW) 7.6 26.6 mph 259° @ 1056 AM 2 or 0.08 0.00 14.3 106.7 0
Amarillo 15NNW 11:59 PM 40 19 22 /16 91 / 15 7.5  (W) 4.8 16.2 mph 286° @ 1059 AM 2 or 0.08 0.00 12.1 94.3 0
Amarillo 7SSE 11:59 PM 40 16 22 /16 91 / 15 8  (SW) 5.1 15.1 mph 247° @ 0310 AM 2.3 or 0.09 0.00 11.9 91.4 0
Amarillo 9NNE 11:59 PM 40 18 22 /16 91 / 15 4.2  (SW) 2.8 12.1 mph 293° @ 1135 AM 1.5 or 0.06 0.00 12.4 96.4 0
Amherst 1NE 11:55 PM 40 24 22 /16 91 / 15 11.4  (W) 7.8 24.5 mph 257° @ 1140 AM 2.3 or 0.09 0.00 13.8 101.8 0
Andrews 2E 11:59 PM 40 29 22 /16 91 / 15 11.1  (SW) 6.9 28.5 mph 241° @ 0202 PM 2.5 or 0.1 0.00 15.4 107.9 0
Anton 6SSW 11:55 PM 40 23 22 /16 91 / 15 11.3  (W) 8.1 24 mph 253° @ 1155 AM 2 or 0.08 0.00 13.7 100.7 0
Aspermont 3NE 11:55 PM 40 26 22 /16 91 / 15 8.4  (W) 5 21.9 mph 213° @ 0410 PM 1.8 or 0.07 0.01 13.9 101.2 0
Big Bend NP - Castolon 11:59 PM 40 26 22 /16 91 / 15 2.8  (NW) 1.4 9.6 mph 143° @ 1242 PM 1.5 or 0.06 0.00 17.2 109.7 0
Big Bend NP - Persimmon Gap 11:59 PM 40 29 22 /16 91 / 15 13.3  (SW) 9.4 30.2 mph 214° @ 0344 PM 3.3 or 0.13 0.00 17 109.7 0
Big Lake 1WNW 11:59 PM 40 26 22 /16 91 / 15 8.6  (S) 6.2 24.6 mph 246° @ 0353 PM 2.3 or 0.09 0.00 16.8 114 0
Bootleg 11WNW 11:59 PM 40 20 22 /16 91 / 15 11.3  (SW) 7.5 24.8 mph 240° @ 1245 AM 2.8 or 0.11 0.00 11.7 88.2 0
Borger 7E 11:59 PM 40 25 22 /16 91 / 15 10.1  (SW) 6.6 19.7 mph 262° @ 0954 AM 2.5 or 0.1 0.00 13.6 107.3 0
Boys Ranch 1WSW 11:59 PM 40 18 22 /16 91 / 15 4.9  (W) 3.9 16.4 mph 281° @ 0154 PM 1.5 or 0.06 0.00 12.5 98.2 0
Brownfield 2S 11:59 PM 40 21 22 /16 91 / 15 12.9  (W) 9.6 25.2 mph 262° @ 1129 PM 1.3 or 0.05 0.00 15.1 108.3 0
Canadian 6E 11:59 PM 40 22 22 /16 91 / 15 6.2  (W) 3.9 21 mph 272° @ 1034 AM 1.8 or 0.07 0.00 12.9 103.2 0
Caprock Canyons State Park 11:59 PM 40 33 22 /16 91 / 15 10.6  (W) 8.1 32.1 mph 272° @ 0357 AM 2.3 or 0.09 0.00 13.9 104.6 0
Childress 2NNE 11:55 PM 40 27 22 /16 91 / 15 9.6  (SW) 5.9 18.9 mph 252° @ 0120 PM 2 or 0.08 0.00 13.2 100.1 0
Clarendon 2WSW 11:55 PM 40 29 22 /16 91 / 15 7.1  (SW) 4.1 16 mph 256° @ 0425 AM 1.8 or 0.07 0.00 12.7 97.3 0
Claude 12SW 11:59 PM 40 27 22 /16 91 / 15 6.7  (SW) 4.8 24.6 mph 260° @ 0226 AM 1.8 or 0.07 0.00 13.4 102.5 0
Clyde 2WNW 11:59 PM 40 32 22 /16 91 / 15 11.3  (SW) 8 23.6 mph 219° @ 0400 PM 2.3 or 0.09 0.00 15.2 107.5 0
Colorado City 5NW 11:59 PM 40 22 22 /16 91 / 15 7.2  (SW) 4.1 23.2 mph 254° @ 0307 PM 1.8 or 0.07 0.00 14.7 104.3 0
Comanche Springs 11:59 PM 40 19 22 /16 91 / 15 5.4  (W) 3.2 24.1 mph 225° @ 0406 PM 1.8 or 0.07 0.00 14.5 109.1 0
Coyanosa 2N 11:59 PM 40 23 22 /16 91 / 15 10.5  (S) 6.7 32.1 mph 265° @ 1249 PM 3 or 0.12 0.00 15.9 108.1 25
Crane 1NNW 11:59 PM 40 24 22 /16 91 / 15 8.4  (NE) 6 27.6 mph 281° @ 0202 PM 2.5 or 0.1 0.00 16.8 114.4 0
Crowell 1E 11:59 PM 40 28 22 /16 91 / 15 9  (SW) 6.9 23.2 mph 218° @ 0332 PM 2 or 0.08 0.00 13.8 103.7 0
Dell City 11:59 PM 40 10 22 /16 91 / 15 4.7  (NW) 3.2 20.1 mph 261° @ 0521 PM 1.8 or 0.07 0.00 14.8 102.2 0
Denver City 7WNW 11:55 PM 40 20 22 /16 91 / 15 13.2  (SW) 8.8 28.4 mph 242° @ 0500 PM 1.3 or 0.05 0.41 15.8 112.4 0
Dimmitt 2NE 11:55 PM 40 23 22 /16 91 / 15 10.7  (W) 8.5 22.4 mph 256° @ 0250 AM 2.3 or 0.09 0.00 13 97.7 0
Doole 3WNW 11:59 PM 40 23 22 /16 91 / 15 9  (S) 6.2 27.2 mph 226° @ 1114 PM 2.5 or 0.1 0.00 16.3 112.5 0
Dora NM 2SW 11:55 PM 40 28 22 /16 91 / 15 16.8  (SW) 13.3 32.8 mph 285° @ 1140 PM 3 or 0.12 0.00 12.6 92.3 0
Dozier 3W 11:59 PM 40 18 22 /16 91 / 15 4.3  (SW) 2.1 11.7 mph 266° @ 0200 AM 1.5 or 0.06 0.00 12.9 100.3 0
Earth 9WSW 11:59 PM 40 20 22 /16 91 / 15 12.2  (W) 7.9 27.6 mph 260° @ 1113 AM 2.5 or 0.1 0.00 14 104 0
Endee NM 2SW 11:59 PM 40 20 22 /16 91 / 15 6.5  (SW) 4.3 17.8 mph 245° @ 1013 AM 2 or 0.08 0.00 12.8 98.2 0
Estelline 3SSE 11:59 PM 40 27 22 /16 91 / 15 6.7  (SW) 3.4 15.6 mph 260° @ 0105 PM 1.8 or 0.07 0.00 13.2 100.8 0
Floydada 2NNE 11:55 PM 40 23 22 /16 91 / 15 11.5  (SW) 7.5 26.7 mph 267° @ 1140 AM 2.3 or 0.09 0.00 13.8 102.1 0
Fluvanna 3WNW 11:55 PM 40 26 22 /16 91 / 15 12.4  (SW) 8.9 26.3 mph 230° @ 0350 PM 1.8 or 0.07 0.00 14 100.6 0
Fort Chadbourne 11:59 PM 40 18 22 /16 91 / 15 4.5  (NW) 2.7 24.9 mph 248° @ 0227 PM 1.5 or 0.06 0.00 14.3 100.3 0
Fort Lancaster 11:59 PM 40 20 22 /16 91 / 15 3.5  (N) 2.1 18.1 mph 180° @ 0653 PM 1.8 or 0.07 0.00 16.3 109 0
Fort Lewis CO 11:59 PM 40 10 22 /16 91 / 15 6.3  (N) 4.3 35.2 mph 314° @ 1047 PM 1 or 0.04 0.00 11.5 92.8 0
Fort McKavett 11:59 PM 40 24 22 /16 91 / 15 6.4  (S) 2.7 20.1 mph 259° @ 0142 PM 2 or 0.08 0.00 16.7 112.3 0
Friona 2NE 11:55 PM 40 18 22 /16 91 / 15 9.7  (W) 7 21.3 mph 256° @ 0915 AM 2.8 or 0.11 0.00 14 105.2 0
Fritch 1WNW 11:59 PM 40 26 22 /16 91 / 15 8.5  (SW) 6.8 19.7 mph 205° @ 0714 AM 2.3 or 0.09 0.00 12 94 0
Gail 2ESE 11:59 PM 40 24 22 /16 91 / 15 9.6  (W) 5.5 25.2 mph 231° @ 0337 PM 1.8 or 0.07 0.00 15.3 109.4 0
Goodlett 3W 11:55 PM 40 23 22 /16 91 / 15 9  (SW) 6 20.8 mph 241° @ 1100 AM 2 or 0.08 0.00 14.2 107.7 0
Goodnight 11:59 PM 40 24 22 /16 91 / 15 10.9  (W) 7.8 23.8 mph 269° @ 0421 AM 2.8 or 0.11 0.00 12.7 97.4 0
Graham 5SSW 11:59 PM 40 26 22 /16 91 / 15 12.9  (W) 10 27.4 mph 273° @ 1037 PM 1.8 or 0.07 0.00 15.4 110.8 0
Guadalupe Mtns Natl Park 11:59 PM 40 30 22 /16 91 / 15 20.9  (SW) 15.9 50.6 mph 295° @ 0337 PM 4.3 or 0.17 0.00 14.3 97 649
Guthrie 10WSW 11:55 PM 40 30 22 /16 91 / 15 11.2  (SW) 7.2 29.5 mph 243° @ 0140 PM 2.5 or 0.1 0.00 13.7 101.3 0
Hackberry 2SSE 11:59 PM 40 29 22 /16 91 / 15 12.8  (SW) 9.5 32.8 mph 241° @ 0127 PM 2.8 or 0.11 0.00 14.9 111.1 0
Happy 1E 11:59 PM 40 20 22 /16 91 / 15 10.4  (W) 8.5 24.6 mph 271° @ 0243 AM 2.5 or 0.1 0.00 12.8 97 0
Hart 3N 11:55 PM 40 21 22 /16 91 / 15 11.4  (W) 8.2 25 mph 262° @ 1120 AM 2 or 0.08 0.00 13.3 99.5 0
Haskell 1NW 11:55 PM 40 28 22 /16 91 / 15 11.3  (SW) 8.2 26.5 mph 215° @ 0415 PM 1.8 or 0.07 0.00 13.7 99.9 0
Hefner 1SW 11:59 PM 40 30 22 /16 91 / 15 13  (SW) 9.1 24.3 mph 201° @ 0419 PM 2 or 0.08 0.00 14 103.1 0
Hereford 2NW 11:55 PM 40 19 22 /16 91 / 15 8.2  (SW) 5.7 16.3 mph 257° @ 0155 AM 2.3 or 0.09 0.00 12.8 97.1 0
Hobbs NM 5NW 11:59 PM 40 22 22 /16 91 / 15 9.1  (SW) 6 18.4 mph 280° @ 1117 AM 1.8 or 0.07 0.00 15.7 111.3 0
Jayton 1SSE 11:55 PM 40 26 22 /16 91 / 15 9.8  (W) 7.9 27.2 mph 249° @ 0455 PM 2.3 or 0.09 0.00 14.4 105.2 0
Junction 1SSW 11:59 PM 40 20 22 /16 91 / 15 5.2  (S) 3.5 19 mph 211° @ 0520 PM 1.8 or 0.07 0.00 14.1 94 0
Kent 9E 11:59 PM 40 41 22 /16 91 / 15 25  (SW) 19.8 45.9 mph 225° @ 0120 PM 4.8 or 0.19 0.00 16.3 108.6 619
Knox City 3NW 11:59 PM 40 28 22 /16 91 / 15 10.5  (SW) 6.6 25.2 mph 211° @ 0425 PM 2.3 or 0.09 0.00 14.5 106.5 0
Lake Alan Henry 1NW 11:59 PM 40 30 22 /16 91 / 15 11.2  (W) 8.4 24.6 mph 237° @ 0432 PM 2 or 0.08 0.00 14.5 104.7 0
Lake McClellan 2NW 11:59 PM 40 24 22 /16 91 / 15 10.4  (W) 7.7 24.6 mph 281° @ 0816 AM 2.8 or 0.11 0.00 12.5 97 0
Lamesa 2SE 11:55 PM 40 24 22 /16 91 / 15 10.9  (SW) 8.1 20.8 mph 249° @ 0150 PM 1.8 or 0.07 0.01 15.5 109.9 0
Lesley 2S 11:59 PM 40 25 22 /16 91 / 15 6.4  (W) 4.4 15 mph 271° @ 1240 PM 1.8 or 0.07 0.00 13.9 106.6 0
Levelland 4S 11:59 PM 40 22 22 /16 91 / 15 12.5  (SW) 9.4 24.1 mph 262° @ 0926 AM 2 or 0.08 0.00 14.8 107.4 0
Lomax 1SSE 11:59 PM 40 26 22 /16 91 / 15 10.3  (SW) 6.8 23.1 mph 228° @ 0315 PM 2.3 or 0.09 0.00 16.2 113 0
Lubbock 3WNW TTU 11:55 PM 40 27 22 /16 91 / 15 10.8  (W) 6.4 26.7 mph 258° @ 0920 AM 1.8 or 0.07 0.00 14.1 103.3 0
McAdoo 3NNW 11:59 PM 40 24 22 /16 91 / 15 13.9  (W) 10.5 29.6 mph 279° @ 1121 AM 1.3 or 0.05 0.00 14.5 107.1 0
McCamey 1SSW 11:59 PM 40 24 22 /16 91 / 15 3.8  (E) 3.1 20.3 mph 285° @ 0413 PM 1.8 or 0.07 0.00 14.4 97.4 0
McLean 1E 11:55 PM 40 25 22 /16 91 / 15 8.1  (W) 5.8 24.9 mph 286° @ 0235 AM 2.3 or 0.09 0.00 13.8 107.4 0
Memphis 1NE 11:59 PM 40 19 22 /16 91 / 15 4.1  (W) 2.2 17.5 mph 226° @ 1208 PM 1.3 or 0.05 0.00 13.2 101.6 0
Menard 2NW 11:59 PM 40 24 22 /16 91 / 15 6.6  (W) 4.3 18.9 mph 243° @ 0117 PM 2 or 0.08 0.00 14.9 100.6 0
Mertzon 3NNE 11:59 PM 40 27 22 /16 91 / 15 9.5  (SW) 5.8 25.9 mph 243° @ 0308 PM 2.5 or 0.1 0.00 15.9 108.3 0
Morton 1ENE 11:55 PM 40 28 22 /16 91 / 15 12.8  (W) 9.5 27.2 mph 268° @ 1015 AM 2.8 or 0.11 0.00 13.5 98.9 0
Muleshoe 2SSW 11:55 PM 40 19 22 /16 91 / 15 10.5  (W) 6.4 24 mph 267° @ 1130 AM 2.3 or 0.09 0.00 14.6 108.5 0
New Home 11:59 PM 40 18 22 /16 91 / 15 10.9  (W) 6.9 19.2 mph 258° @ 1129 PM 1 or 0.04 0.00 14 101.6 0
Northfield 1S 11:55 PM 40 27 22 /16 91 / 15 9.1  (SW) 5.1 21.9 mph 248° @ 1105 AM 2.3 or 0.09 0.00 12.8 96.6 0
O'Donnell 1N 11:55 PM 40 20 22 /16 91 / 15 11.4  (SW) 6.5 21.6 mph 251° @ 1030 AM 1.3 or 0.05 0.00 13.1 93.9 0
Odell 4ENE 11:59 PM 40 27 22 /16 91 / 15 7.8  (SW) 4.7 19 mph 225° @ 0106 PM 1.8 or 0.07 0.00 13.6 103.6 0
Olton 6S 11:55 PM 40 20 22 /16 91 / 15 11.8  (W) 8.2 29 mph 262° @ 1125 AM 2.3 or 0.09 0.00 13.7 101.6 0
Paducah 10SW 11:55 PM 40 26 22 /16 91 / 15 12.5  (W) 8.7 31.4 mph 225° @ 0320 PM 2.5 or 0.1 0.00 12.7 94.8 0
Palo Duro 4E (JA Ranch) 11:59 PM 40 26 22 /16 91 / 15 6.7  (W) 4.5 28.4 mph 272° @ 0306 AM 2 or 0.08 0.00 13.4 103 0
Palo Duro Canyon SP Floor 11:59 PM 40 23 22 /16 91 / 15 3.2  (NW) 1.2 14.7 mph 321° @ 0312 AM 1.3 or 0.05 0.00 12.1 93.2 0
Palo Duro Canyon State Park Rim 11:59 PM 40 22 22 /16 91 / 15 6.8  (W) 3.6 20.9 mph 288° @ 1141 PM 2 or 0.08 0.00 13.4 102.9 0
Palo Duro Reservoir 1NW 11:59 PM 40 18 22 /16 91 / 15 6.8  (SW) 4.3 14.5 mph 214° @ 0302 AM 1.8 or 0.07 0.00 11.5 92.7 0
Pampa 2E 11:55 PM 40 26 22 /16 91 / 15 8  (SW) 5.7 20.5 mph 275° @ 1040 AM 2.3 or 0.09 0.00 11.8 92.1 0
Panhandle 1SSW 11:59 PM 40 16 22 /16 91 / 15 6.9  (SW) 4.7 23.4 mph 281° @ 1020 AM 2 or 0.08 0.01 12.5 96.6 0
Plains 3N 11:55 PM 40 14 22 /16 91 / 15 10.8  (W) 7.7 23.2 mph 229° @ 0605 PM 1.3 or 0.05 0.00 15.3 110.1 0
Plainview 1S 11:59 PM 40 25 22 /16 91 / 15 8.9  (W) 7.1 24.1 mph 258° @ 1143 AM 1.8 or 0.07 0.00 13.8 102.6 0
Post 1NE 11:59 PM 40 29 22 /16 91 / 15 13.1  (E) 10 29.6 mph 251° @ 1031 PM 1.8 or 0.07 0.00 14.7 106.3 0
Ralls 1SE 11:59 PM 40 17 22 /16 91 / 15 11.2  (W) 9.1 28.5 mph 268° @ 1022 AM 1.3 or 0.05 0.00 14.6 107.2 0
Reese Center 11:59 PM 40 24 22 /16 91 / 15 12.3  (SW) 9 26.3 mph 261° @ 0936 AM 2 or 0.08 0.00 14 101.8 0
Roaring Springs 3N 11:59 PM 40 31 22 /16 91 / 15 14.1  (SW) 10.9 37.3 mph 233° @ 1136 AM 2.5 or 0.1 0.00 14.2 105.4 0
Romero 11SSW 11:59 PM 40 18 22 /16 91 / 15 6.1  (W) 3.2 13.2 mph 299° @ 0433 AM 1.5 or 0.06 0.00 12.1 94.4 0
Rotan 5W 11:59 PM 40 31 22 /16 91 / 15 14.3  (SW) 10.1 25.5 mph 234° @ 0159 PM 2.3 or 0.09 0.00 18.2 130.8 0
San Angelo 7NW 11:55 PM 40 23 22 /16 91 / 15 6.5  (W) 4.6 23.8 mph 243° @ 0445 PM 2 or 0.08 0.00 15.7 108.2 0
Seagraves 1SW 11:55 PM 40 17 22 /16 91 / 15 10.4  (W) 5.9 23.7 mph 242° @ 0645 PM 1 or 0.04 0.00 13 92.9 0
Segovia 7SSW 11:59 PM 40 34 22 /16 91 / 15 9.4  (SW) 6.9 21.2 mph 261° @ 1013 AM 2.5 or 0.1 0.00 16.2 106.9 0
Seminole 2NNE 11:55 PM 40 23 22 /16 91 / 15 10.3  (SW) 7.1 25 mph 243° @ 0310 PM 2 or 0.08 0.00 14.9 105.6 0
Seymour 3NW 11:55 PM 40 27 22 /16 91 / 15 8.6  (W) 5.9 23 mph 221° @ 0145 PM 1.8 or 0.07 0.00 12.4 91.9 0
Sierra Blanca 1SSE 11:59 PM 40 29 22 /16 91 / 15 8.9  (W) 6.4 29.5 mph 259° @ 0421 PM 2.3 or 0.09 0.00 14.5 96.5 1
Silverton 7ESE 11:55 PM 40 26 22 /16 91 / 15 14.7  (SW) 10.9 27.6 mph 258° @ 1140 AM 2.5 or 0.1 0.00 12.9 97.4 0
Slaton 2NE 11:59 PM 40 20 22 /16 91 / 15 14.4  (SW) 11 24.1 mph 249° @ 0758 PM 1.3 or 0.05 0.00 15.6 113.4 0
Smyer 11:59 PM 40 23 22 /16 91 / 15 11.5  (W) 8.5 24.9 mph 252° @ 0908 AM 1.8 or 0.07 0.00 14.6 106.6 0
Snyder 3E 11:55 PM 40 25 22 /16 91 / 15 8.9  (SW) 4 22.7 mph 242° @ 0300 PM 1.8 or 0.07 0.00 13.1 93.7 0
Snyder 3SSW 11:59 PM 40 25 22 /16 91 / 15 10.8  (SW) 7.3 22 mph 231° @ 0227 PM 2 or 0.08 0.00 14.6 104 0
South Plains 3ENE 11:59 PM 40 26 22 /16 91 / 15 11.9  (SW) 8.7 28.2 mph 261° @ 1149 AM 2.3 or 0.09 0.00 13.6 101.7 0
Spur 1W 11:55 PM 40 25 22 /16 91 / 15 7.7  (SW) 4.7 22.3 mph 261° @ 0255 PM 1.5 or 0.06 0.00 14.2 104.3 0
St. Lawrence 5SW 11:55 PM 40 25 22 /16 91 / 15 12.9  (S) 9 32.6 mph 261° @ 1250 PM 2.5 or 0.1 0.01 16.1 110.9 0
Stamford 5ESE 11:59 PM 40 26 22 /16 91 / 15 9  (S) 5.2 23.5 mph 248° @ 0134 PM 1.8 or 0.07 0.01 15 108.2 0
Sterling City 4WSW 11:59 PM 40 25 22 /16 91 / 15 8.5  (NW) 5.5 27 mph 239° @ 1209 PM 2 or 0.08 0.00 12.6 87.1 0
Stinnett 1NNW 11:59 PM 40 23 22 /16 91 / 15 10.7  (W) 6.5 18.7 mph 252° @ 0104 AM 2.5 or 0.1 0.00 12.2 96.6 0
Stratford 4WNW 11:59 PM 40 23 22 /16 91 / 15 9.8  (W) 6.3 18.9 mph 272° @ 1219 AM 2.3 or 0.09 0.00 11.9 95.9 0
Sundown 8WSW 11:55 PM 40 18 22 /16 91 / 15 12.1  (W) 8.1 26.8 mph 265° @ 1205 PM 2.3 or 0.09 0.00 12.4 89.9 0
Sweetwater 11SW 11:59 PM 40 28 22 /16 91 / 15 10.2  (SW) 6.9 25.2 mph 240° @ 0255 PM 2 or 0.08 0.00 16.3 115.1 0
Tahoka 3NNE 11:59 PM 40 22 22 /16 91 / 15 11.3  (SW) 7.7 21.3 mph 258° @ 1030 PM 1.3 or 0.05 0.00 15 108 0
Tarzan 2WNW 11:59 PM 40 25 22 /16 91 / 15 10.3  (SW) 7.3 23.6 mph 237° @ 0225 PM 2.3 or 0.09 0.00 15.5 108.5 0
Tatum NM 2SW 11:55 PM 40 19 22 /16 91 / 15 12.6  (SW) 7.7 25.7 mph 287° @ 1155 PM 1.8 or 0.07 0.20 15.2 108.9 0
Throckmorton 1SW 11:59 PM 40 31 22 /16 91 / 15 10.5  (SW) 6.1 24.6 mph 244° @ 1208 PM 2.3 or 0.09 0.00 15.1 110.2 0
Truscott 2SE 11:59 PM 40 29 22 /16 91 / 15 11.6  (W) 8 26.9 mph 221° @ 0403 PM 2.3 or 0.09 0.00 13.4 99.7 0
Tulia 2ENE 11:55 PM 40 24 22 /16 91 / 15 12.2  (SW) 9.4 22.9 mph 263° @ 0245 AM 2.3 or 0.09 0.00 11.3 85.4 0
Turkey 2WSW 11:55 PM 40 29 22 /16 91 / 15 11.3  (SW) 8 23.2 mph 229° @ 1130 AM 2.3 or 0.09 0.00 11.7 88.7 0
Umbarger 3NNE 11:59 PM 40 18 22 /16 91 / 15 9.9  (SW) 6.9 17.5 mph 231° @ 0525 AM 2.8 or 0.11 0.00 12 91.7 0
Van Horn 3ENE 11:59 PM 40 22 22 /16 91 / 15 12  (SW) 7.8 28.3 mph 249° @ 0324 PM 3 or 0.12 0.00 17.2 114.6 0
Vega 4E 11:59 PM 40 21 22 /16 91 / 15 6.6  (SW) 3.8 16.4 mph 292° @ 0240 PM 2 or 0.08 0.00 13.3 102.7 0
Vigo Park 11:59 PM 40 20 22 /16 91 / 15 10.6  (SW) 7 20.3 mph 257° @ 1118 AM 2.3 or 0.09 0.01 11.9 89.7 0
Wall 2E 11:59 PM 40 29 22 /16 91 / 15 12.6  (W) 9.6 27.2 mph 224° @ 1100 PM 2.8 or 0.11 0.00 15.5 106.2 0
Weinert 2NNE 11:59 PM 40 28 22 /16 91 / 15 10.4  (SW) 7 23.7 mph 215° @ 0348 PM 1.8 or 0.07 0.01 13.3 97.8 0
Welch 11:59 PM 40 20 22 /16 91 / 15 11.3  (SW) 7.4 20.8 mph 251° @ 1133 AM 1.5 or 0.06 0.00 15.4 109.7 0
White River Lake 6NW 11:59 PM 40 30 22 /16 91 / 15 12  (SW) 9.2 31.8 mph 265° @ 0930 PM 1.8 or 0.07 0.00 15.1 110.7 0
Wolfforth 6SSW 11:59 PM 40 20 22 /16 91 / 15 12.3  (SW) 8.7 25.2 mph 267° @ 0839 AM 1.3 or 0.05 0.00 14.9 107.9 0

WestTexas Mesonet Home    Site Map/Menu  National Weather Service Lubbock   Soil Data   Latest Observation Page   Previous  Date   Next Last